Time;durP1;ratioP1;P1;durP2;ratioP2;P2;SDS_P1;SDS_P2;PMS_P1;PMS_P2;Temp;Humidity;BMP_temperature;BMP_pressure;BME280_temperature;BME280_humidity;BME280_pressure;Samples;Min_cycle;Max_cycle;Signal;HPM_P1;HPM_P2
2023/05/10 00:01:15;;;;;;;;;;;;;;;;;;5035295;28;19975;-18
2023/05/10 00:03:41;;;;;;;;;;;;;;;;;;5034986;28;19932;-18
2023/05/10 00:06:07;;;;;;;;;;;;;;;;;;5035293;28;19945;-18
2023/05/10 00:08:33;;;;;;;;;;;;;;;;;;5034169;28;20351;-18
2023/05/10 00:11:00;;;;;;;;;;;;;;;;;;5035470;28;19940;-18
2023/05/10 00:13:26;;;;;;;;;;;;;;;;;;5035344;28;19962;-18
2023/05/10 00:15:53;;;;;;;;;;;;;;;;;;5035139;28;20375;-18
2023/05/10 00:18:19;;;;;;;;;;;;;;;;;;5035356;28;20226;-18
2023/05/10 00:20:45;;;;;;;;;;;;;;;;;;5035327;28;20396;-18
2023/05/10 00:23:11;;;;;;;;;;;;;;;;;;5035234;28;20249;-18
2023/05/10 00:25:37;;;;;;;;;;;;;;;;;;5034924;28;19909;-18
2023/05/10 00:28:03;;;;;;;;;;;;;;;;;;5034879;28;19913;-18
2023/05/10 00:30:29;;;;;;;;;;;;;;;;;;5035200;28;19948;-19
2023/05/10 00:32:55;;;;;;;;;;;;;;;;;;5035064;28;20028;-18
2023/05/10 00:35:21;;;;;;;;;;;;;;;;;;5033887;28;20359;-18
2023/05/10 00:37:47;;;;;;;;;;;;;;;;;;5034822;28;20000;-18
2023/05/10 00:40:13;;;;;;;;;;;;;;;;;;5034675;28;19955;-18
2023/05/10 00:42:39;;;;;;;;;;;;;;;;;;5034777;28;19909;-18
2023/05/10 00:45:05;;;;;;;;;;;;;;;;;;5035332;28;20336;-19
2023/05/10 00:47:31;;;;;;;;;;;;;;;;;;5034727;28;19943;-18
2023/05/10 00:49:57;;;;;;;;;;;;;;;;;;5035019;28;20379;-18
2023/05/10 00:52:23;;;;;;;;;;;;;;;;;;5034662;28;20256;-18
2023/05/10 00:54:49;;;;;;;;;;;;;;;;;;5035300;28;19920;-18
2023/05/10 00:57:15;;;;;;;;;;;;;;;;;;5035228;28;19920;-17
2023/05/10 00:59:41;;;;;;;;;;;;;;;;;;5034712;28;19932;-17
2023/05/10 01:02:07;;;;;;;;;;;;;;;;;;5035052;28;20232;-17
2023/05/10 01:04:33;;;;;;;;;;;;;;;;;;5034445;28;19920;-20
2023/05/10 01:06:59;;;;;;;;;;;;;;;;;;5034794;28;19963;-18
2023/05/10 01:09:26;;;;;;;;;;;;;;;;;;5034595;28;19924;-18
2023/05/10 01:11:52;;;;;;;;;;;;;;;;;;5034765;28;19909;-18
2023/05/10 01:14:18;;;;;;;;;;;;;;;;;;5034767;28;19909;-18
2023/05/10 01:16:44;;;;;;;;;;;;;;;;;;5033499;28;19919;-17
2023/05/10 01:19:10;;;;;;;;;;;;;;;;;;5034501;28;19909;-18
2023/05/10 01:21:36;;;;;;;;;;;;;;;;;;5034448;28;19909;-18
2023/05/10 01:24:02;;;;;;;;;;;;;;;;;;5034372;28;19910;-18
2023/05/10 01:26:28;;;;;;;;;;;;;;;;;;5034430;28;19917;-18
2023/05/10 01:28:54;;;;;;;;;;;;;;;;;;5034386;28;19920;-18
2023/05/10 01:31:20;;;;;;;;;;;;;;;;;;5034343;28;19920;-19
2023/05/10 01:33:46;;;;;;;;;;;;;;;;;;5034268;28;19912;-18
2023/05/10 01:36:11;;;;;;;;;;;;;;;;;;5034610;28;19967;-18
2023/05/10 01:38:38;;;;;;;;;;;;;;;;;;5034266;28;19975;-18
2023/05/10 01:41:04;;;;;;;;;;;;;;;;;;5034345;28;19913;-18
2023/05/10 01:43:30;;;;;;;;;;;;;;;;;;5034214;28;20374;-18
2023/05/10 01:45:56;;;;;;;;;;;;;;;;;;5034255;28;19975;-18
2023/05/10 01:48:22;;;;;;;;;;;;;;;;;;5034416;28;19952;-17
2023/05/10 01:50:48;;;;;;;;;;;;;;;;;;5034165;28;19928;-18
2023/05/10 01:53:14;;;;;;;;;;;;;;;;;;5035383;28;19913;-18
2023/05/10 01:55:40;;;;;;;;;;;;;;;;;;5037986;28;20008;-18
2023/05/10 01:58:06;;;;;;;;;;;;;;;;;;5037896;28;19924;-18
2023/05/10 02:00:32;;;;;;;;;;;;;;;;;;5037900;28;19936;-18
2023/05/10 02:02:58;;;;;;;;;;;;;;;;;;5037347;28;19927;-18
2023/05/10 02:05:24;;;;;;;;;;;;;;;;;;5037514;28;20438;-18
2023/05/10 02:07:50;;;;;;;;;;;;;;;;;;5037393;28;19913;-18
2023/05/10 02:10:16;;;;;;;;;;;;;;;;;;5037680;28;19914;-18
2023/05/10 02:12:42;;;;;;;;;;;;;;;;;;5037568;28;19909;-18
2023/05/10 02:15:08;;;;;;;;;;;;;;;;;;5037400;28;20004;-18
2023/05/10 02:17:34;;;;;;;;;;;;;;;;;;5037526;28;20014;-18
2023/05/10 02:20:00;;;;;;;;;;;;;;;;;;5037270;28;19920;-18
2023/05/10 02:22:26;;;;;;;;;;;;;;;;;;5037176;28;19909;-18
2023/05/10 02:24:52;;;;;;;;;;;;;;;;;;5037185;28;20279;-18
2023/05/10 02:27:18;;;;;;;;;;;;;;;;;;5037314;28;19913;-18
2023/05/10 02:29:44;;;;;;;;;;;;;;;;;;5037311;28;19920;-18
2023/05/10 02:32:10;;;;;;;;;;;;;;;;;;5037460;28;19931;-18
2023/05/10 02:34:36;;;;;;;;;;;;;;;;;;5037251;28;19971;-18
2023/05/10 02:37:02;;;;;;;;;;;;;;;;;;5036948;28;20000;-18
2023/05/10 02:39:28;;;;;;;;;;;;;;;;;;5036948;28;19952;-18
2023/05/10 02:41:55;;;;;;;;;;;;;;;;;;5036866;28;20403;-18
2023/05/10 02:44:21;;;;;;;;;;;;;;;;;;5037099;28;19920;-18
2023/05/10 02:46:47;;;;;;;;;;;;;;;;;;5035710;28;20352;-18
2023/05/10 02:49:13;;;;;;;;;;;;;;;;;;5037021;28;19936;-18
2023/05/10 02:51:39;;;;;;;;;;;;;;;;;;5036676;28;19909;-18
2023/05/10 02:54:06;;;;;;;;;;;;;;;;;;5036548;28;20063;-18
2023/05/10 02:56:32;;;;;;;;;;;;;;;;;;5036599;28;19909;-18
2023/05/10 02:58:57;;;;;;;;;;;;;;;;;;5036763;28;19916;-18
2023/05/10 03:01:23;;;;;;;;;;;;;;;;;;5036465;28;19909;-18
2023/05/10 03:03:49;;;;;;;;;;;;;;;;;;5035979;28;19952;-18
2023/05/10 03:06:16;;;;;;;;;;;;;;;;;;5036387;28;19967;-18
2023/05/10 03:08:42;;;;;;;;;;;;;;;;;;5036515;28;19917;-18
2023/05/10 03:11:08;;;;;;;;;;;;;;;;;;5036288;28;19987;-18
2023/05/10 03:13:35;;;;;;;;;;;;;;;;;;5036203;28;19952;-18
2023/05/10 03:16:01;;;;;;;;;;;;;;;;;;5036190;28;19913;-17
2023/05/10 03:18:27;;;;;;;;;;;;;;;;;;5036062;28;19909;-18
2023/05/10 03:20:53;;;;;;;;;;;;;;;;;;5036099;28;19920;-18
2023/05/10 03:23:18;;;;;;;;;;;;;;;;;;5035930;28;19909;-18
2023/05/10 03:25:45;;;;;;;;;;;;;;;;;;5035959;28;19913;-18
2023/05/10 03:28:11;;;;;;;;;;;;;;;;;;5035871;28;20028;-18
2023/05/10 03:30:37;;;;;;;;;;;;;;;;;;5036172;28;19947;-18
2023/05/10 03:33:03;;;;;;;;;;;;;;;;;;5034824;28;20062;-18
2023/05/10 03:35:28;;;;;;;;;;;;;;;;;;5035783;28;19988;-18
2023/05/10 03:37:54;;;;;;;;;;;;;;;;;;5035692;28;20307;-18
2023/05/10 03:40:20;;;;;;;;;;;;;;;;;;5035902;28;19909;-18
2023/05/10 03:42:46;;;;;;;;;;;;;;;;;;5035881;28;20355;-18
2023/05/10 03:45:12;;;;;;;;;;;;;;;;;;5035490;28;20355;-18
2023/05/10 03:47:38;;;;;;;;;;;;;;;;;;5035642;28;19913;-18
2023/05/10 03:50:04;;;;;;;;;;;;;;;;;;5035355;28;19952;-18
2023/05/10 03:52:31;;;;;;;;;;;;;;;;;;5035312;28;20427;-18
2023/05/10 03:54:57;;;;;;;;;;;;;;;;;;5035887;28;19932;-18
2023/05/10 03:57:23;;;;;;;;;;;;;;;;;;5035552;28;19909;-18
2023/05/10 03:59:49;;;;;;;;;;;;;;;;;;5035213;28;19913;-17
2023/05/10 04:02:15;;;;;;;;;;;;;;;;;;5035414;28;20008;-18
2023/05/10 04:04:41;;;;;;;;;;;;;;;;;;5034902;28;20340;-17
2023/05/10 04:07:07;;;;;;;;;;;;;;;;;;5034851;28;20263;-18
2023/05/10 04:09:36;;;;;;;;;;;;;;;;;;5035779;28;19959;-18
2023/05/10 04:12:02;;;;;;;;;;;;;;;;;;5034788;28;19959;-18
2023/05/10 04:14:28;;;;;;;;;;;;;;;;;;5034810;28;19940;-18
2023/05/10 04:16:55;;;;;;;;;;;;;;;;;;5033958;28;19920;-18
2023/05/10 04:19:21;;;;;;;;;;;;;;;;;;5035008;28;19991;-18
2023/05/10 04:21:47;;;;;;;;;;;;;;;;;;5034942;28;20022;-18
2023/05/10 04:24:12;;;;;;;;;;;;;;;;;;5035195;28;20004;-18
2023/05/10 04:26:38;;;;;;;;;;;;;;;;;;5034498;28;20264;-18
2023/05/10 04:29:04;;;;;;;;;;;;;;;;;;5033718;28;20276;-17
2023/05/10 04:31:30;;;;;;;;;;;;;;;;;;5034496;28;20362;-18
2023/05/10 04:33:56;;;;;;;;;;;;;;;;;;5034445;28;20344;-18
2023/05/10 04:36:22;;;;;;;;;;;;;;;;;;5034719;28;19971;-18
2023/05/10 04:38:48;;;;;;;;;;;;;;;;;;5034541;28;19953;-18
2023/05/10 04:41:14;;;;;;;;;;;;;;;;;;5034420;28;19924;-17
2023/05/10 04:43:40;;;;;;;;;;;;;;;;;;5034200;28;19924;-17
2023/05/10 04:46:09;;;;;;;;;;;;;;;;;;5034275;28;19960;-17
2023/05/10 04:48:35;;;;;;;;;;;;;;;;;;5034908;28;19944;-17
2023/05/10 04:51:03;;;;;;;;;;;;;;;;;;5034466;28;19910;-18
2023/05/10 04:53:29;;;;;;;;;;;;;;;;;;5034277;28;20059;-17
2023/05/10 04:55:55;;;;;;;;;;;;;;;;;;5034277;28;19975;-17
2023/05/10 04:58:21;;;;;;;;;;;;;;;;;;5034271;28;19910;-18
2023/05/10 05:00:47;;;;;;;;;;;;;;;;;;5034269;28;19951;-17
2023/05/10 05:03:13;;;;;;;;;;;;;;;;;;5034070;28;20060;-18
2023/05/10 05:05:39;;;;;;;;;;;;;;;;;;5034569;28;19910;-18
2023/05/10 05:08:05;;;;;;;;;;;;;;;;;;5034511;28;19924;-18
2023/05/10 05:10:31;;;;;;;;;;;;;;;;;;5033203;28;20328;-18
2023/05/10 05:12:57;;;;;;;;;;;;;;;;;;5034074;28;19909;-18
2023/05/10 05:15:23;;;;;;;;;;;;;;;;;;5034197;28;19909;-17
2023/05/10 05:17:49;;;;;;;;;;;;;;;;;;5034178;28;20341;-18
2023/05/10 05:20:15;;;;;;;;;;;;;;;;;;5034296;28;19921;-17
2023/05/10 05:22:41;;;;;;;;;;;;;;;;;;5034257;28;19910;-18
2023/05/10 05:25:07;;;;;;;;;;;;;;;;;;5033125;28;19944;-27
2023/05/10 05:27:33;;;;;;;;;;;;;;;;;;5035966;28;19921;-17
2023/05/10 05:29:58;;;;;;;;;;;;;;;;;;5037902;28;19917;-18
2023/05/10 05:32:24;;;;;;;;;;;;;;;;;;5037802;28;19913;-18
2023/05/10 05:34:51;;;;;;;;;;;;;;;;;;5038033;28;19916;-18
2023/05/10 05:37:17;;;;;;;;;;;;;;;;;;5037610;28;19974;-17
2023/05/10 05:39:43;;;;;;;;;;;;;;;;;;5037474;28;19996;-26
2023/05/10 05:42:09;;;;;;;;;;;;;;;;;;5037946;28;19920;-19
2023/05/10 05:44:35;;;;;;;;;;;;;;;;;;5037639;28;19913;-17
2023/05/10 05:47:00;;;;;;;;;;;;;;;;;;5037789;28;20335;-18
2023/05/10 05:49:26;;;;;;;;;;;;;;;;;;5037555;28;20315;-19
2023/05/10 05:51:52;;;;;;;;;;;;;;;;;;5037370;28;19986;-18
2023/05/10 05:54:18;;;;;;;;;;;;;;;;;;5037515;28;19919;-18
2023/05/10 05:56:44;;;;;;;;;;;;;;;;;;5037403;28;20360;-18
2023/05/10 05:59:10;;;;;;;;;;;;;;;;;;5037358;28;19992;-18
2023/05/10 06:01:36;;;;;;;;;;;;;;;;;;5037499;28;19908;-17
2023/05/10 06:04:02;;;;;;;;;;;;;;;;;;5036666;28;20368;-18
2023/05/10 06:06:28;;;;;;;;;;;;;;;;;;5037299;28;19920;-17
2023/05/10 06:08:54;;;;;;;;;;;;;;;;;;5037057;28;19917;-18
2023/05/10 06:11:23;;;;;;;;;;;;;;;;;;5036811;28;20033;-17
2023/05/10 06:13:50;;;;;;;;;;;;;;;;;;5036727;28;20279;-17
2023/05/10 06:16:16;;;;;;;;;;;;;;;;;;5036720;28;19909;-18
2023/05/10 06:18:41;;;;;;;;;;;;;;;;;;5036844;28;20396;-18
2023/05/10 06:21:08;;;;;;;;;;;;;;;;;;5036571;28;20285;-18
2023/05/10 06:23:34;;;;;;;;;;;;;;;;;;5036745;28;19909;-17
2023/05/10 06:26:00;;;;;;;;;;;;;;;;;;5036435;28;20407;-18
2023/05/10 06:28:26;;;;;;;;;;;;;;;;;;5035268;28;19960;-18
2023/05/10 06:30:52;;;;;;;;;;;;;;;;;;5036320;28;19948;-19
2023/05/10 06:33:18;;;;;;;;;;;;;;;;;;5036279;28;20263;-18
2023/05/10 06:35:44;;;;;;;;;;;;;;;;;;5036571;28;20366;-18
2023/05/10 06:38:10;;;;;;;;;;;;;;;;;;5036362;28;20303;-18
2023/05/10 06:40:36;;;;;;;;;;;;;;;;;;5036666;28;20229;-18
2023/05/10 06:43:02;;;;;;;;;;;;;;;;;;5036743;28;19916;-18
2023/05/10 06:45:28;;;;;;;;;;;;;;;;;;5037213;28;20358;-19
2023/05/10 06:47:54;;;;;;;;;;;;;;;;;;5036721;28;20320;-17
2023/05/10 06:50:20;;;;;;;;;;;;;;;;;;5035388;28;19936;-18
2023/05/10 06:52:46;;;;;;;;;;;;;;;;;;5036276;28;19916;-17
2023/05/10 06:55:12;;;;;;;;;;;;;;;;;;5036272;28;19916;-18
2023/05/10 06:57:38;;;;;;;;;;;;;;;;;;5035276;28;19941;-18
2023/05/10 07:00:04;;;;;;;;;;;;;;;;;;5036026;28;20004;-17
2023/05/10 07:02:30;;;;;;;;;;;;;;;;;;5036124;28;20251;-18
2023/05/10 07:04:57;;;;;;;;;;;;;;;;;;5036121;28;19979;-18
2023/05/10 07:07:23;;;;;;;;;;;;;;;;;;5035957;28;20352;-18
2023/05/10 07:09:52;;;;;;;;;;;;;;;;;;5036046;28;20336;-18
2023/05/10 07:12:18;;;;;;;;;;;;;;;;;;5035876;28;20332;-18
2023/05/10 07:14:44;;;;;;;;;;;;;;;;;;5034733;28;19913;-18
2023/05/10 07:17:10;;;;;;;;;;;;;;;;;;5035740;28;19909;-18
2023/05/10 07:19:36;;;;;;;;;;;;;;;;;;5035769;28;20392;-18
2023/05/10 07:22:02;;;;;;;;;;;;;;;;;;5035617;28;19983;-18
2023/05/10 07:24:28;;;;;;;;;;;;;;;;;;5036060;28;19909;-18
2023/05/10 07:26:54;;;;;;;;;;;;;;;;;;5036031;28;19924;-18
2023/05/10 07:29:20;;;;;;;;;;;;;;;;;;5035678;28;19909;-19
2023/05/10 07:31:46;;;;;;;;;;;;;;;;;;5034441;28;19992;-19
2023/05/10 07:34:12;;;;;;;;;;;;;;;;;;5035948;28;20063;-18
2023/05/10 07:36:38;;;;;;;;;;;;;;;;;;5035356;28;19940;-18
2023/05/10 07:39:05;;;;;;;;;;;;;;;;;;5035399;28;19913;-18
2023/05/10 07:41:31;;;;;;;;;;;;;;;;;;5035717;28;19993;-19
2023/05/10 07:43:57;;;;;;;;;;;;;;;;;;5034304;28;19979;-18
2023/05/10 07:46:23;;;;;;;;;;;;;;;;;;5035244;28;19909;-17
2023/05/10 07:48:48;;;;;;;;;;;;;;;;;;5035182;28;20020;-17
2023/05/10 07:51:14;;;;;;;;;;;;;;;;;;5034310;28;19913;-18
2023/05/10 07:53:41;;;;;;;;;;;;;;;;;;5034942;28;20264;-18
2023/05/10 07:56:07;;;;;;;;;;;;;;;;;;5035316;28;19920;-17
2023/05/10 07:58:32;;;;;;;;;;;;;;;;;;5034983;28;20367;-17
2023/05/10 08:00:58;;;;;;;;;;;;;;;;;;5034932;28;19910;-18
2023/05/10 08:03:24;;;;;;;;;;;;;;;;;;5034812;28;19925;-18
2023/05/10 08:05:50;;;;;;;;;;;;;;;;;;5035241;28;19908;-31
2023/05/10 08:08:17;;;;;;;;;;;;;;;;;;5034715;28;19917;-18
2023/05/10 08:10:43;;;;;;;;;;;;;;;;;;5035143;28;19917;-18
2023/05/10 08:13:09;;;;;;;;;;;;;;;;;;5034851;28;19932;-18
2023/05/10 08:15:35;;;;;;;;;;;;;;;;;;5034752;28;20252;-18
2023/05/10 08:18:01;;;;;;;;;;;;;;;;;;5034826;28;20358;-18
2023/05/10 08:20:26;;;;;;;;;;;;;;;;;;5033618;28;19992;-18
2023/05/10 08:22:53;;;;;;;;;;;;;;;;;;5034717;28;19955;-18
2023/05/10 08:25:19;;;;;;;;;;;;;;;;;;5034724;28;19909;-18
2023/05/10 08:27:45;;;;;;;;;;;;;;;;;;5034634;28;19924;-18
2023/05/10 08:30:11;;;;;;;;;;;;;;;;;;5034739;28;20004;-18
2023/05/10 08:32:37;;;;;;;;;;;;;;;;;;5035021;28;19920;-17
2023/05/10 08:35:03;;;;;;;;;;;;;;;;;;5033359;28;20236;-18
2023/05/10 08:37:29;;;;;;;;;;;;;;;;;;5034337;28;19945;-18
2023/05/10 08:39:55;;;;;;;;;;;;;;;;;;5034616;28;19917;-17
2023/05/10 08:42:21;;;;;;;;;;;;;;;;;;5034266;28;19916;-18
2023/05/10 08:44:47;;;;;;;;;;;;;;;;;;5034433;28;19917;-19
2023/05/10 08:47:13;;;;;;;;;;;;;;;;;;5033804;28;19928;-18
2023/05/10 08:49:39;;;;;;;;;;;;;;;;;;5034974;28;19996;-17
2023/05/10 08:52:05;;;;;;;;;;;;;;;;;;5034170;28;19909;-18
2023/05/10 08:54:31;;;;;;;;;;;;;;;;;;5034244;28;19967;-17
2023/05/10 08:56:57;;;;;;;;;;;;;;;;;;5033973;28;20295;-18
2023/05/10 08:59:23;;;;;;;;;;;;;;;;;;5034118;28;19920;-18
2023/05/10 09:01:49;;;;;;;;;;;;;;;;;;5034454;28;19909;-18
2023/05/10 09:04:15;;;;;;;;;;;;;;;;;;5038214;28;19925;-18
2023/05/10 09:06:41;;;;;;;;;;;;;;;;;;5037783;28;19921;-17
2023/05/10 09:09:07;;;;;;;;;;;;;;;;;;5037694;28;19912;-18
2023/05/10 09:11:33;;;;;;;;;;;;;;;;;;5036736;28;19909;-17
2023/05/10 09:13:59;;;;;;;;;;;;;;;;;;5036636;28;19921;-18
2023/05/10 09:16:25;;;;;;;;;;;;;;;;;;5038160;28;20018;-18
2023/05/10 09:18:51;;;;;;;;;;;;;;;;;;5036672;28;20301;-18
2023/05/10 09:21:17;;;;;;;;;;;;;;;;;;5036660;28;19909;-18
2023/05/10 09:23:46;;;;;;;;;;;;;;;;;;5037776;28;19945;-18
2023/05/10 09:26:12;;;;;;;;;;;;;;;;;;5037815;28;19996;-18
2023/05/10 09:28:38;;;;;;;;;;;;;;;;;;5037749;28;19999;-17
2023/05/10 09:31:04;;;;;;;;;;;;;;;;;;5037759;28;19941;-17
2023/05/10 09:33:30;;;;;;;;;;;;;;;;;;5037711;28;19909;-18
2023/05/10 09:35:56;;;;;;;;;;;;;;;;;;5037924;28;19916;-19
2023/05/10 09:38:22;;;;;;;;;;;;;;;;;;5037714;28;19916;-18
2023/05/10 09:40:48;;;;;;;;;;;;;;;;;;5037532;28;19914;-17
2023/05/10 09:43:14;;;;;;;;;;;;;;;;;;5036527;28;20104;-18
2023/05/10 09:45:40;;;;;;;;;;;;;;;;;;5037504;28;20264;-18
2023/05/10 09:48:06;;;;;;;;;;;;;;;;;;5037393;28;19920;-18
2023/05/10 09:50:32;;;;;;;;;;;;;;;;;;5037465;28;19996;-18
2023/05/10 09:52:58;;;;;;;;;;;;;;;;;;5037337;28;19913;-18
2023/05/10 09:55:24;;;;;;;;;;;;;;;;;;5037300;28;20299;-18
2023/05/10 09:57:50;;;;;;;;;;;;;;;;;;5037167;28;19967;-22
2023/05/10 10:00:16;;;;;;;;;;;;;;;;;;5036037;28;19940;-17
2023/05/10 10:02:42;;;;;;;;;;;;;;;;;;5036676;28;20222;-18
2023/05/10 10:05:08;;;;;;;;;;;;;;;;;;5038002;28;19913;-18
2023/05/10 10:07:34;;;;;;;;;;;;;;;;;;5037225;28;20293;-18
2023/05/10 10:10:00;;;;;;;;;;;;;;;;;;5037181;28;19909;-17
2023/05/10 10:12:26;;;;;;;;;;;;;;;;;;5036952;28;19967;-16
2023/05/10 10:14:52;;;;;;;;;;;;;;;;;;5036022;28;19917;-18
2023/05/10 10:17:18;;;;;;;;;;;;;;;;;;5037025;28;19915;-17
2023/05/10 10:19:44;;;;;;;;;;;;;;;;;;5036833;28;19916;-18
2023/05/10 10:22:11;;;;;;;;;;;;;;;;;;5036912;28;19920;-19
2023/05/10 10:24:37;;;;;;;;;;;;;;;;;;5036796;28;20419;-17
2023/05/10 10:27:04;;;;;;;;;;;;;;;;;;5036802;28;20067;-18
2023/05/10 10:29:30;;;;;;;;;;;;;;;;;;5036833;28;19932;-18
2023/05/10 10:31:56;;;;;;;;;;;;;;;;;;5036659;28;19909;-17
2023/05/10 10:34:22;;;;;;;;;;;;;;;;;;5035603;28;19909;-17
2023/05/10 10:36:48;;;;;;;;;;;;;;;;;;5036877;28;20267;-19
2023/05/10 10:39:14;;;;;;;;;;;;;;;;;;5036802;28;19915;-18
2023/05/10 10:41:44;;;;;;;;;;;;;;;;;;5036696;28;20007;-18
2023/05/10 10:44:10;;;;;;;;;;;;;;;;;;5036345;28;19909;-19
2023/05/10 10:46:36;;;;;;;;;;;;;;;;;;5036175;28;19909;-18
2023/05/10 10:49:02;;;;;;;;;;;;;;;;;;5035106;28;20340;-18
2023/05/10 10:51:28;;;;;;;;;;;;;;;;;;5036381;28;19936;-19
2023/05/10 10:53:54;;;;;;;;;;;;;;;;;;5035294;28;19917;-17
2023/05/10 10:56:21;;;;;;;;;;;;;;;;;;5036175;28;19983;-18
2023/05/10 10:58:47;;;;;;;;;;;;;;;;;;5035958;28;20313;-18
2023/05/10 11:01:13;;;;;;;;;;;;;;;;;;5035684;28;19945;-18
2023/05/10 11:03:39;;;;;;;;;;;;;;;;;;5035340;28;19921;-19
2023/05/10 11:06:05;;;;;;;;;;;;;;;;;;5035641;28;20336;-19
2023/05/10 11:08:31;;;;;;;;;;;;;;;;;;5035599;28;19952;-17
2023/05/10 11:10:57;;;;;;;;;;;;;;;;;;5034392;28;19975;-17
2023/05/10 11:13:23;;;;;;;;;;;;;;;;;;5034464;28;19920;-17
2023/05/10 11:15:50;;;;;;;;;;;;;;;;;;5035646;28;19909;-17
2023/05/10 11:18:15;;;;;;;;;;;;;;;;;;5035647;28;20000;-18
2023/05/10 11:20:41;;;;;;;;;;;;;;;;;;5035506;28;19945;-18
2023/05/10 11:23:07;;;;;;;;;;;;;;;;;;5035538;28;20019;-18
2023/05/10 11:25:33;;;;;;;;;;;;;;;;;;5034568;28;20245;-18
2023/05/10 11:27:59;;;;;;;;;;;;;;;;;;5035825;28;20411;-18
2023/05/10 11:30:25;;;;;;;;;;;;;;;;;;5036143;28;19944;-18
2023/05/10 11:32:51;;;;;;;;;;;;;;;;;;5035572;28;20344;-18
2023/05/10 11:35:19;;;;;;;;;;;;;;;;;;5035041;28;20211;-17
2023/05/10 11:37:45;;;;;;;;;;;;;;;;;;5035691;28;19917;-17
2023/05/10 11:40:11;;;;;;;;;;;;;;;;;;5035692;28;20325;-17
2023/05/10 11:42:37;;;;;;;;;;;;;;;;;;5034239;28;19909;-18
2023/05/10 11:45:03;;;;;;;;;;;;;;;;;;5035316;28;19937;-18
2023/05/10 11:47:29;;;;;;;;;;;;;;;;;;5035314;28;19920;-19
2023/05/10 11:49:55;;;;;;;;;;;;;;;;;;5035108;28;19913;-19
2023/05/10 11:52:21;;;;;;;;;;;;;;;;;;5035014;28;19936;-18
2023/05/10 11:54:47;;;;;;;;;;;;;;;;;;5035320;28;19917;-18
2023/05/10 11:57:13;;;;;;;;;;;;;;;;;;5035435;28;19909;-18
2023/05/10 11:59:39;;;;;;;;;;;;;;;;;;5035145;28;19959;-17
2023/05/10 12:02:05;;;;;;;;;;;;;;;;;;5034981;28;19919;-19
2023/05/10 12:04:31;;;;;;;;;;;;;;;;;;5035063;28;19921;-18
2023/05/10 12:06:57;;;;;;;;;;;;;;;;;;5033921;28;20296;-18
2023/05/10 12:09:23;;;;;;;;;;;;;;;;;;5035390;28;19916;-20
2023/05/10 12:11:49;;;;;;;;;;;;;;;;;;5034764;28;19948;-18
2023/05/10 12:14:15;;;;;;;;;;;;;;;;;;5034689;28;20366;-18
2023/05/10 12:16:41;;;;;;;;;;;;;;;;;;5035106;28;19955;-18
2023/05/10 12:19:07;;;;;;;;;;;;;;;;;;5034758;28;19913;-18
2023/05/10 12:21:33;;;;;;;;;;;;;;;;;;5034651;28;19909;-18
2023/05/10 12:23:59;;;;;;;;;;;;;;;;;;5034549;28;19909;-18
2023/05/10 12:26:26;;;;;;;;;;;;;;;;;;5034584;28;20220;-19
2023/05/10 12:28:52;;;;;;;;;;;;;;;;;;5033342;28;19914;-17
2023/05/10 12:31:18;;;;;;;;;;;;;;;;;;5034540;28;19909;-18
2023/05/10 12:33:45;;;;;;;;;;;;;;;;;;5034460;28;20355;-18
2023/05/10 12:36:11;;;;;;;;;;;;;;;;;;5034360;28;19988;-18
2023/05/10 12:38:37;;;;;;;;;;;;;;;;;;5034517;28;20014;-18
2023/05/10 12:41:04;;;;;;;;;;;;;;;;;;5033436;28;20344;-18
2023/05/10 12:43:30;;;;;;;;;;;;;;;;;;5034582;28;19917;-17
2023/05/10 12:45:56;;;;;;;;;;;;;;;;;;5033382;28;20332;-18
2023/05/10 12:48:25;;;;;;;;;;;;;;;;;;5034153;28;19916;-18
2023/05/10 12:50:51;;;;;;;;;;;;;;;;;;5034207;28;19909;-17
2023/05/10 12:53:16;;;;;;;;;;;;;;;;;;5034108;28;19920;-18
2023/05/10 12:55:42;;;;;;;;;;;;;;;;;;5034186;28;19909;-17
2023/05/10 12:58:08;;;;;;;;;;;;;;;;;;5034247;28;19909;-16
2023/05/10 13:00:34;;;;;;;;;;;;;;;;;;5034284;28;19913;-17
2023/05/10 13:03:00;;;;;;;;;;;;;;;;;;5032893;28;20348;-16
2023/05/10 13:05:26;;;;;;;;;;;;;;;;;;5034406;28;19909;-17
2023/05/10 13:07:52;;;;;;;;;;;;;;;;;;5034200;28;19925;-18
2023/05/10 13:10:18;;;;;;;;;;;;;;;;;;5034533;28;19963;-19
2023/05/10 13:12:44;;;;;;;;;;;;;;;;;;5034351;28;19921;-18
2023/05/10 13:15:10;;;;;;;;;;;;;;;;;;5034557;28;20238;-18
2023/05/10 13:17:38;;;;;;;;;;;;;;;;;;5034223;28;19916;-18
2023/05/10 13:20:04;;;;;;;;;;;;;;;;;;5033208;28;20379;-17
2023/05/10 13:22:30;;;;;;;;;;;;;;;;;;5034168;28;19917;-18
2023/05/10 13:24:56;;;;;;;;;;;;;;;;;;5034309;28;19910;-18
2023/05/10 13:27:22;;;;;;;;;;;;;;;;;;5034198;28;19936;-18
2023/05/10 13:29:48;;;;;;;;;;;;;;;;;;5033113;28;19999;-18
2023/05/10 13:32:14;;;;;;;;;;;;;;;;;;5033987;28;19940;-17
2023/05/10 13:34:40;;;;;;;;;;;;;;;;;;5034116;28;19910;-18
2023/05/10 13:37:06;;;;;;;;;;;;;;;;;;5034335;28;19909;-18
2023/05/10 13:39:34;;;;;;;;;;;;;;;;;;5034074;28;19970;-18
2023/05/10 13:42:00;;;;;;;;;;;;;;;;;;5033991;28;19909;-18
2023/05/10 13:44:26;;;;;;;;;;;;;;;;;;5034014;28;20248;-22
2023/05/10 13:46:52;;;;;;;;;;;;;;;;;;5034180;28;19909;-18
2023/05/10 13:49:17;;;;;;;;;;;;;;;;;;5036658;28;19913;-18
2023/05/10 13:51:43;;;;;;;;;;;;;;;;;;5037548;28;19911;-18
2023/05/10 13:54:09;;;;;;;;;;;;;;;;;;5037716;28;20035;-18
2023/05/10 13:56:35;;;;;;;;;;;;;;;;;;5037613;28;19955;-18
2023/05/10 13:59:01;;;;;;;;;;;;;;;;;;5037315;28;19909;-17
2023/05/10 14:01:28;;;;;;;;;;;;;;;;;;5037493;28;20304;-18
2023/05/10 14:03:54;;;;;;;;;;;;;;;;;;5036870;28;20412;-17
2023/05/10 14:06:20;;;;;;;;;;;;;;;;;;5037054;28;19937;-18
2023/05/10 14:08:46;;;;;;;;;;;;;;;;;;5037800;28;19955;-17
2023/05/10 14:11:12;;;;;;;;;;;;;;;;;;5036090;28;20388;-18
2023/05/10 14:13:38;;;;;;;;;;;;;;;;;;5037016;28;19913;-18
2023/05/10 14:16:04;;;;;;;;;;;;;;;;;;5036796;28;19909;-17
2023/05/10 14:18:30;;;;;;;;;;;;;;;;;;5037246;28;19910;-18
2023/05/10 14:20:56;;;;;;;;;;;;;;;;;;5036946;28;19931;-18
2023/05/10 14:23:25;;;;;;;;;;;;;;;;;;5036953;28;19909;-18
2023/05/10 14:25:51;;;;;;;;;;;;;;;;;;5037243;28;19913;-18
2023/05/10 14:28:18;;;;;;;;;;;;;;;;;;5037274;28;20324;-18
2023/05/10 14:30:44;;;;;;;;;;;;;;;;;;5036690;28;19996;-18
2023/05/10 14:33:10;;;;;;;;;;;;;;;;;;5036610;28;20371;-18
2023/05/10 14:35:36;;;;;;;;;;;;;;;;;;5036725;28;19920;-18
2023/05/10 14:38:02;;;;;;;;;;;;;;;;;;5036829;28;19909;-19
2023/05/10 14:40:28;;;;;;;;;;;;;;;;;;5036631;28;20182;-19
2023/05/10 14:42:54;;;;;;;;;;;;;;;;;;5036460;28;19920;-19
2023/05/10 14:45:20;;;;;;;;;;;;;;;;;;5035527;28;19913;-18
2023/05/10 14:47:46;;;;;;;;;;;;;;;;;;5036429;28;19913;-18
2023/05/10 14:50:12;;;;;;;;;;;;;;;;;;5036229;28;19909;-18
2023/05/10 14:52:38;;;;;;;;;;;;;;;;;;5036214;28;19916;-18
2023/05/10 14:55:04;;;;;;;;;;;;;;;;;;5036093;28;19941;-18
2023/05/10 14:57:30;;;;;;;;;;;;;;;;;;5035191;28;19917;-18
2023/05/10 14:59:56;;;;;;;;;;;;;;;;;;5035838;28;19916;-18
2023/05/10 15:02:22;;;;;;;;;;;;;;;;;;5036250;28;19909;-18
2023/05/10 15:04:48;;;;;;;;;;;;;;;;;;5035738;28;20229;-18
2023/05/10 15:07:16;;;;;;;;;;;;;;;;;;5035824;28;19913;-17
2023/05/10 15:09:42;;;;;;;;;;;;;;;;;;5036294;28;20039;-18
2023/05/10 15:12:08;;;;;;;;;;;;;;;;;;5035997;28;19909;-18
2023/05/10 15:14:36;;;;;;;;;;;;;;;;;;5035618;28;20398;-17
2023/05/10 15:17:02;;;;;;;;;;;;;;;;;;5035427;28;19909;-19
2023/05/10 15:19:29;;;;;;;;;;;;;;;;;;5035550;28;19936;-17
2023/05/10 15:21:55;;;;;;;;;;;;;;;;;;5035423;28;20367;-17
2023/05/10 15:24:21;;;;;;;;;;;;;;;;;;5035398;28;19920;-17
2023/05/10 15:26:47;;;;;;;;;;;;;;;;;;5035431;28;19909;-17
2023/05/10 15:29:19;;;;;;;;;;;;;;;;;;5035650;28;19913;-17
2023/05/10 15:31:45;;;;;;;;;;;;;;;;;;5035613;28;20299;-18
2023/05/10 15:34:11;;;;;;;;;;;;;;;;;;5035173;28;19909;-18
2023/05/10 15:36:37;;;;;;;;;;;;;;;;;;5035524;28;19909;-18
2023/05/10 15:39:03;;;;;;;;;;;;;;;;;;5035491;28;19915;-18
2023/05/10 15:41:29;;;;;;;;;;;;;;;;;;5035521;28;19999;-18
2023/05/10 15:43:55;;;;;;;;;;;;;;;;;;5035815;28;19912;-18
2023/05/10 15:46:21;;;;;;;;;;;;;;;;;;5035828;28;20193;-18
2023/05/10 15:48:47;;;;;;;;;;;;;;;;;;5034064;28;19971;-18
2023/05/10 15:51:14;;;;;;;;;;;;;;;;;;5034434;28;20007;-17
2023/05/10 15:53:40;;;;;;;;;;;;;;;;;;5035256;28;19909;-17
2023/05/10 15:56:06;;;;;;;;;;;;;;;;;;5035550;28;19920;-18
2023/05/10 15:58:32;;;;;;;;;;;;;;;;;;5035540;28;19916;-18
2023/05/10 16:00:58;;;;;;;;;;;;;;;;;;5034121;28;19909;-17
2023/05/10 16:03:24;;;;;;;;;;;;;;;;;;5033768;28;19921;-17
2023/05/10 16:05:50;;;;;;;;;;;;;;;;;;5034986;28;20236;-17
2023/05/10 16:08:16;;;;;;;;;;;;;;;;;;5035027;28;19913;-17
2023/05/10 16:10:42;;;;;;;;;;;;;;;;;;5035324;28;20413;-18
2023/05/10 16:13:08;;;;;;;;;;;;;;;;;;5034245;28;19909;-18
2023/05/10 16:15:34;;;;;;;;;;;;;;;;;;5034759;28;19909;-17
2023/05/10 16:18:00;;;;;;;;;;;;;;;;;;5034675;28;19967;-17
2023/05/10 16:20:26;;;;;;;;;;;;;;;;;;5034842;28;19971;-18
2023/05/10 16:22:51;;;;;;;;;;;;;;;;;;5035080;28;19909;-18
2023/05/10 16:25:17;;;;;;;;;;;;;;;;;;5034717;28;19939;-17
2023/05/10 16:27:43;;;;;;;;;;;;;;;;;;5034922;28;19921;-18
2023/05/10 16:30:09;;;;;;;;;;;;;;;;;;5034679;28;19920;-17
2023/05/10 16:32:35;;;;;;;;;;;;;;;;;;5033599;28;19924;-18
2023/05/10 16:35:02;;;;;;;;;;;;;;;;;;5034866;28;20205;-18
2023/05/10 16:37:27;;;;;;;;;;;;;;;;;;5034866;28;19921;-18